Time;durP1;ratioP1;P1;durP2;ratioP2;P2;SDS_P1;SDS_P2;PMS_P1;PMS_P2;Temp;Humidity;BMP_temperature;BMP_pressure;BME280_temperature;BME280_humidity;BME280_pressure;Samples;Min_cycle;Max_cycle;Signal;HPM_P1;HPM_P2
2021/05/13 00:00:17;;;;;;;7.07;3.50;;;18.70;96.10;;;;;;5033105;28;20518;-46
2021/05/13 00:02:45;;;;;;;7.97;2.50;;;18.70;96.10;;;;;;5015500;28;20053;-45
2021/05/13 00:05:13;;;;;;;6.00;2.10;;;18.70;96.10;;;;;;5031725;28;20133;-45
2021/05/13 00:07:42;;;;;;;3.38;1.52;;;18.60;96.00;;;;;;5031669;28;20524;-48
2021/05/13 00:10:19;;;;;;;6.53;1.90;;;18.60;95.90;;;;;;5030900;28;20042;-45
2021/05/13 00:13:01;;;;;;;10.27;2.78;;;18.50;95.50;;;;;;5031544;28;20156;-45
2021/05/13 00:15:38;;;;;;;8.93;2.72;;;18.40;95.40;;;;;;5033164;28;20057;-50
2021/05/13 00:18:07;;;;;;;6.70;1.75;;;18.40;95.30;;;;;;5015321;28;20483;-45
2021/05/13 00:20:41;;;;;;;8.63;2.40;;;18.40;95.00;;;;;;5015962;28;20061;-46
2021/05/13 00:23:10;;;;;;;9.73;2.40;;;18.30;94.80;;;;;;5028537;28;20048;-45
2021/05/13 00:25:38;;;;;;;4.30;1.80;;;18.40;94.60;;;;;;5028742;28;20518;-45
2021/05/13 00:28:06;;;;;;;5.57;1.65;;;18.40;94.50;;;;;;5030359;28;20458;-47
2021/05/13 00:30:34;;;;;;;13.32;1.90;;;18.40;94.30;;;;;;5014989;28;20054;-48
2021/05/13 00:33:02;;;;;;;4.63;2.35;;;18.30;94.00;;;;;;5030587;28;20112;-48
2021/05/13 00:35:31;;;;;;;13.38;2.20;;;18.30;93.90;;;;;;5031175;28;20129;-46
2021/05/13 00:37:59;;;;;;;4.35;1.65;;;18.40;93.80;;;;;;5031106;28;20076;-46
2021/05/13 00:40:26;;;;;;;5.53;1.73;;;18.30;93.60;;;;;;5030374;28;20103;-48
2021/05/13 00:42:54;;;;;;;6.72;1.67;;;18.30;93.40;;;;;;5032805;28;20050;-45
2021/05/13 00:45:23;;;;;;;8.00;1.83;;;18.30;93.30;;;;;;5031569;28;20093;-45
2021/05/13 00:50:22;;;;;;;6.25;2.10;;;18.30;93.10;;;;;;5032776;28;20075;-46
2021/05/13 00:52:50;;;;;;;3.28;1.42;;;18.30;93.00;;;;;;5031163;28;20044;-47
2021/05/13 00:55:19;;;;;;;9.60;1.75;;;18.30;92.90;;;;;;5031520;28;20053;-45
2021/05/13 00:57:51;;;;;;;5.32;1.77;;;18.30;92.80;;;;;;5036272;28;20495;-45
2021/05/13 01:00:40;;;;;;;3.70;1.60;;;18.30;92.80;;;;;;5035565;28;20053;-46
2021/05/13 01:03:08;;;;;;;5.47;2.15;;;18.20;92.70;;;;;;5035982;28;20057;-46
2021/05/13 01:05:37;;;;;;;4.93;2.20;;;18.30;92.80;;;;;;5010712;28;20076;-45
2021/05/13 01:08:06;;;;;;;5.60;1.90;;;18.20;92.70;;;;;;5034909;28;20057;-45
2021/05/13 01:10:36;;;;;;;9.20;4.03;;;18.20;92.70;;;;;;5036663;28;20567;-46
2021/05/13 01:13:08;;;;;;;6.28;1.60;;;18.10;92.70;;;;;;5035582;28;20058;-45
2021/05/13 01:15:42;;;;;;;4.00;1.67;;;18.10;92.70;;;;;;5035012;28;20061;-46
2021/05/13 01:18:16;;;;;;;4.57;2.20;;;18.10;92.60;;;;;;5035901;28;20069;-50
2021/05/13 01:20:44;;;;;;;9.15;2.15;;;18.10;92.40;;;;;;5027459;28;20049;-45
2021/05/13 01:23:13;;;;;;;5.90;2.08;;;18.10;92.50;;;;;;5018039;28;20136;-46
2021/05/13 01:25:52;;;;;;;3.70;1.85;;;18.10;92.30;;;;;;5035221;28;20494;-45
2021/05/13 01:28:21;;;;;;;6.93;2.38;;;18.10;92.30;;;;;;5017981;28;20042;-46
2021/05/13 01:30:50;;;;;;;3.40;2.10;;;18.10;92.30;;;;;;5035058;28;20057;-45
2021/05/13 01:33:21;;;;;;;5.40;2.00;;;18.10;92.40;;;;;;5033968;28;20077;-45
2021/05/13 01:35:51;;;;;;;3.20;1.52;;;18.00;92.40;;;;;;5034918;28;20050;-48
2021/05/13 01:38:25;;;;;;;5.00;1.95;;;18.00;92.50;;;;;;5035508;28;20041;-47
2021/05/13 01:40:58;;;;;;;3.75;1.50;;;18.00;92.50;;;;;;5036096;28;20045;-45
2021/05/13 01:43:28;;;;;;;4.20;2.22;;;18.00;92.50;;;;;;5018071;28;20399;-48
2021/05/13 01:45:59;;;;;;;6.60;2.30;;;18.00;92.50;;;;;;5034644;28;20489;-46
2021/05/13 01:48:28;;;;;;;4.80;1.92;;;18.00;92.60;;;;;;5035349;28;20049;-48
2021/05/13 01:50:57;;;;;;;4.20;2.33;;;18.00;92.80;;;;;;5034563;28;20069;-46
2021/05/13 01:53:25;;;;;;;4.05;1.90;;;17.90;92.80;;;;;;5033924;28;20049;-46
2021/05/13 01:55:53;;;;;;;5.05;1.77;;;17.80;93.00;;;;;;5034942;28;20053;-45
2021/05/13 01:58:21;;;;;;;10.93;2.53;;;17.80;93.20;;;;;;5033871;28;20132;-46
2021/05/13 02:00:50;;;;;;;5.28;1.50;;;17.70;93.30;;;;;;5017925;28;20045;-46
2021/05/13 02:03:18;;;;;;;4.45;1.55;;;17.70;93.40;;;;;;5017117;28;20180;-46
2021/05/13 02:05:46;;;;;;;7.55;1.98;;;17.70;93.40;;;;;;5034356;28;20049;-46
2021/05/13 02:08:14;;;;;;;4.30;2.13;;;17.80;93.30;;;;;;5033197;28;20049;-46
2021/05/13 02:10:41;;;;;;;5.13;1.65;;;17.80;93.40;;;;;;5034257;28;20499;-47
2021/05/13 02:13:09;;;;;;;6.72;2.55;;;17.80;93.30;;;;;;5016714;28;20042;-46
2021/05/13 02:15:37;;;;;;;4.65;1.95;;;17.80;93.30;;;;;;5009270;28;20132;-46
2021/05/13 02:18:05;;;;;;;5.97;2.17;;;17.80;93.30;;;;;;5033644;28;20515;-45
2021/05/13 02:20:33;;;;;;;7.53;2.80;;;17.80;93.20;;;;;;5017392;28;20094;-46
2021/05/13 02:23:01;;;;;;;3.05;1.90;;;17.80;93.20;;;;;;5033237;28;20056;-47
2021/05/13 02:25:32;;;;;;;3.67;2.17;;;17.70;93.20;;;;;;5017615;28;20099;-46
2021/05/13 02:28:01;;;;;;;5.80;1.67;;;17.70;93.10;;;;;;5017213;28;20071;-48
2021/05/13 02:30:29;;;;;;;8.82;1.75;;;17.70;93.00;;;;;;5033642;28;20046;-47
2021/05/13 02:33:09;;;;;;;6.60;1.85;;;17.70;92.90;;;;;;5018313;28;20128;-47
2021/05/13 02:35:38;;;;;;;8.98;2.33;;;17.70;92.90;;;;;;5026448;28;20053;-45
2021/05/13 02:38:06;;;;;;;12.07;1.65;;;17.70;92.70;;;;;;5033477;28;20061;-48
2021/05/13 02:40:34;;;;;;;3.80;1.67;;;17.70;92.70;;;;;;5033811;28;20069;-45
2021/05/13 02:43:03;;;;;;;6.80;1.98;;;17.60;92.60;;;;;;5016910;28;20049;-46
2021/05/13 02:45:31;;;;;;;4.80;1.85;;;17.60;92.60;;;;;;5017015;28;20072;-46
2021/05/13 02:47:59;;;;;;;4.00;1.85;;;17.60;92.60;;;;;;5033239;28;20057;-46
2021/05/13 02:50:27;;;;;;;8.75;1.85;;;17.60;92.60;;;;;;5017226;28;20049;-46
2021/05/13 02:52:55;;;;;;;7.93;1.90;;;17.60;92.70;;;;;;5034049;28;20583;-47
2021/05/13 02:55:23;;;;;;;7.45;2.17;;;17.60;92.40;;;;;;5016723;28;20041;-46
2021/05/13 02:57:51;;;;;;;8.20;3.20;;;17.60;92.40;;;;;;5032895;28;20482;-46
2021/05/13 03:03:17;;;;;;;7.82;1.88;;;17.60;92.40;;;;;;5011651;28;20442;-48
2021/05/13 03:05:44;;;;;;;4.72;1.95;;;17.60;92.30;;;;;;5034322;28;20096;-45
2021/05/13 03:08:14;;;;;;;7.38;2.08;;;17.60;92.30;;;;;;5032620;28;20064;-46
2021/05/13 03:10:44;;;;;;;2.92;1.80;;;17.60;92.30;;;;;;5033051;28;20049;-49
2021/05/13 03:13:22;;;;;;;6.20;1.70;;;17.60;92.30;;;;;;5032278;28;20054;-48
2021/05/13 03:15:50;;;;;;;6.82;2.50;;;17.60;92.30;;;;;;5032853;28;20085;-46
2021/05/13 03:18:22;;;;;;;3.60;1.42;;;17.50;92.30;;;;;;5016249;28;20049;-46
2021/05/13 03:21:03;;;;;;;6.65;2.85;;;17.50;92.30;;;;;;5032336;28;20049;-47
2021/05/13 03:23:54;;;;;;;6.28;1.75;;;17.50;92.40;;;;;;5033496;28;20065;-46
2021/05/13 03:29:02;;;;;;;4.72;1.88;;;17.50;92.30;;;;;;5033244;28;20046;-46
2021/05/13 03:31:30;;;;;;;6.18;2.22;;;17.50;92.30;;;;;;5016471;28;20046;-48
2021/05/13 03:34:02;;;;;;;4.18;1.20;;;17.50;92.30;;;;;;5016119;28;20452;-46
2021/05/13 03:36:33;;;;;;;3.45;1.15;;;17.50;92.30;;;;;;5000240;28;20050;-45
2021/05/13 03:39:06;;;;;;;4.43;1.60;;;17.50;92.20;;;;;;5033611;28;20060;-46
2021/05/13 03:41:34;;;;;;;11.10;1.90;;;17.50;92.30;;;;;;5033603;28;20049;-45
2021/05/13 03:44:04;;;;;;;6.35;1.50;;;17.50;92.20;;;;;;5032129;28;20444;-46
2021/05/13 03:46:32;;;;;;;5.53;1.83;;;17.50;92.20;;;;;;5015927;28;20049;-46
2021/05/13 03:49:00;;;;;;;5.78;2.10;;;17.50;92.20;;;;;;5033343;28;20080;-46
2021/05/13 03:51:27;;;;;;;5.90;2.50;;;17.60;92.10;;;;;;5032288;28;20041;-46
2021/05/13 03:53:55;;;;;;;4.00;1.63;;;17.60;92.10;;;;;;5033194;28;20128;-46
2021/05/13 03:56:23;;;;;;;4.30;1.65;;;17.60;92.00;;;;;;4999861;28;20128;-46
2021/05/13 03:58:56;;;;;;;10.85;2.20;;;17.60;92.00;;;;;;5031651;28;20507;-47
2021/05/13 04:03:58;;;;;;;3.03;1.50;;;17.60;92.00;;;;;;5015338;28;20061;-45
2021/05/13 04:06:26;;;;;;;5.65;2.10;;;17.60;92.00;;;;;;5030884;28;20034;-46
2021/05/13 04:08:53;;;;;;;4.38;1.35;;;17.70;91.90;;;;;;5012404;28;20072;-46
2021/05/13 04:11:21;;;;;;;3.47;1.88;;;17.80;91.80;;;;;;5031992;28;20041;-47
2021/05/13 04:13:51;;;;;;;6.88;1.77;;;17.90;91.70;;;;;;5031038;28;20045;-51
2021/05/13 04:16:26;;;;;;;2.42;1.63;;;18.00;91.60;;;;;;5032111;28;20053;-46
2021/05/13 04:18:54;;;;;;;5.68;1.48;;;18.10;91.60;;;;;;5030756;28;20128;-45
2021/05/13 04:21:22;;;;;;;6.45;1.30;;;18.30;91.60;;;;;;5015454;28;20119;-46
2021/05/13 04:23:50;;;;;;;4.65;1.70;;;18.40;91.40;;;;;;5031692;28;20056;-46
2021/05/13 04:26:18;;;;;;;11.02;2.05;;;18.40;91.30;;;;;;5031915;28;20045;-46
2021/05/13 04:28:46;;;;;;;5.90;2.17;;;18.50;91.60;;;;;;5031323;28;20057;-46
2021/05/13 04:31:14;;;;;;;4.25;1.88;;;18.40;91.50;;;;;;5034895;28;20140;-47
2021/05/13 04:33:42;;;;;;;4.50;1.88;;;18.40;91.60;;;;;;5035476;28;20060;-46
2021/05/13 04:36:10;;;;;;;4.07;1.88;;;18.40;91.60;;;;;;5036143;28;20111;-46
2021/05/13 04:38:38;;;;;;;3.70;1.27;;;18.30;91.70;;;;;;5035419;28;20064;-48
2021/05/13 04:41:05;;;;;;;8.05;1.95;;;18.20;91.90;;;;;;5035307;28;20061;-48
2021/05/13 04:43:37;;;;;;;6.05;2.10;;;18.20;92.00;;;;;;5035562;28;20563;-47
2021/05/13 04:46:07;;;;;;;4.88;1.95;;;18.20;92.00;;;;;;5036160;28;20049;-46
2021/05/13 04:51:24;;;;;;;6.20;2.28;;;18.10;92.10;;;;;;5036837;28;20132;-50
2021/05/13 04:53:53;;;;;;;12.35;2.58;;;18.20;92.10;;;;;;5035283;28;20053;-46
2021/05/13 04:56:21;;;;;;;6.97;2.30;;;18.20;92.00;;;;;;5003182;28;20045;-46
2021/05/13 04:58:50;;;;;;;7.43;2.50;;;18.20;92.00;;;;;;5034911;28;20045;-47
2021/05/13 05:01:18;;;;;;;10.43;2.65;;;18.30;91.90;;;;;;5035467;28;20132;-48
2021/05/13 05:03:47;;;;;;;12.52;2.47;;;18.30;91.90;;;;;;5034681;28;20057;-46
2021/05/13 05:06:16;;;;;;;3.50;1.42;;;18.40;91.70;;;;;;5018966;28;20065;-46
2021/05/13 05:08:44;;;;;;;2.92;1.70;;;18.30;91.50;;;;;;5018059;28;20087;-46
2021/05/13 05:11:13;;;;;;;6.07;2.28;;;18.40;91.50;;;;;;5002405;28;20411;-48
2021/05/13 05:13:40;;;;;;;28.00;2.08;;;18.40;91.40;;;;;;5018596;28;20488;-46
2021/05/13 05:16:08;;;;;;;6.65;2.20;;;18.40;91.30;;;;;;5035395;28;20050;-48
2021/05/13 05:18:36;;;;;;;3.35;2.08;;;18.50;91.30;;;;;;5035528;28;20049;-47
2021/05/13 05:21:04;;;;;;;9.52;2.17;;;18.60;91.20;;;;;;5018117;28;20053;-46
2021/05/13 05:23:32;;;;;;;9.20;2.63;;;18.70;91.10;;;;;;5016707;28;20149;-46
2021/05/13 05:26:00;;;;;;;6.85;2.63;;;18.80;91.00;;;;;;5035707;28;20080;-46
2021/05/13 05:28:29;;;;;;;3.97;1.85;;;19.10;90.90;;;;;;5018365;28;20459;-46
2021/05/13 05:30:57;;;;;;;7.20;2.03;;;19.10;90.60;;;;;;5035795;28;20048;-47
2021/05/13 05:33:25;;;;;;;6.47;1.90;;;19.20;90.40;;;;;;5035701;28;20057;-48
2021/05/13 05:35:54;;;;;;;4.90;1.60;;;19.30;90.30;;;;;;5036065;28;20077;-47
2021/05/13 05:38:21;;;;;;;5.55;2.17;;;19.20;90.10;;;;;;5033969;28;20045;-46
2021/05/13 05:40:49;;;;;;;5.10;1.73;;;19.20;90.30;;;;;;5034788;28;20050;-46
2021/05/13 05:43:17;;;;;;;3.30;1.55;;;19.20;90.30;;;;;;5033438;28;20388;-54
2021/05/13 05:45:46;;;;;;;4.28;2.33;;;19.20;90.30;;;;;;5034497;28;20164;-45
2021/05/13 05:48:14;;;;;;;3.90;1.50;;;19.20;90.00;;;;;;5034061;28;20065;-47
2021/05/13 05:50:43;;;;;;;3.92;2.20;;;19.20;90.10;;;;;;5034156;28;20546;-47
2021/05/13 05:53:11;;;;;;;6.20;2.15;;;19.20;90.10;;;;;;5035254;28;20507;-47
2021/05/13 05:55:40;;;;;;;4.32;1.80;;;19.20;90.10;;;;;;5017572;28;20073;-48
2021/05/13 05:58:08;;;;;;;8.07;2.47;;;19.10;90.10;;;;;;5008467;28;20050;-46
2021/05/13 06:00:36;;;;;;;3.75;1.50;;;19.10;90.10;;;;;;5027103;28;20057;-47
2021/05/13 06:03:04;;;;;;;8.80;2.72;;;19.20;90.10;;;;;;5031715;28;20442;-51
2021/05/13 06:05:35;;;;;;;5.25;1.88;;;19.30;90.10;;;;;;5017363;28;20045;-46
2021/05/13 06:08:05;;;;;;;6.35;1.75;;;19.30;89.70;;;;;;5033351;28;20128;-46
2021/05/13 06:10:33;;;;;;;5.65;2.40;;;19.30;89.10;;;;;;5017844;28;20128;-46
2021/05/13 06:13:06;;;;;;;5.18;1.95;;;19.30;89.20;;;;;;5016876;28;20067;-48
2021/05/13 06:15:37;;;;;;;4.95;1.90;;;19.40;88.80;;;;;;5033560;28;20088;-47
2021/05/13 06:18:06;;;;;;;3.10;1.30;;;19.50;88.60;;;;;;5032191;28;20048;-46
2021/05/13 06:20:36;;;;;;;4.25;2.47;;;19.60;88.30;;;;;;5021092;28;20068;-50
2021/05/13 06:23:04;;;;;;;4.68;1.55;;;19.60;87.90;;;;;;5016635;28;20112;-52
2021/05/13 06:25:32;;;;;;;6.57;2.20;;;19.80;88.20;;;;;;5033980;28;20041;-46
2021/05/13 06:28:01;;;;;;;6.90;1.88;;;19.70;87.00;;;;;;5014614;28;20531;-46
2021/05/13 06:30:29;;;;;;;4.20;1.60;;;19.80;86.90;;;;;;5028492;28;20056;-51
2021/05/13 06:33:00;;;;;;;6.57;1.40;;;19.70;87.30;;;;;;5017164;28;20053;-52
2021/05/13 06:35:39;;;;;;;3.70;1.80;;;19.60;87.30;;;;;;5029661;28;20092;-46
2021/05/13 06:38:07;;;;;;;7.18;2.10;;;19.70;87.50;;;;;;5031142;28;20045;-49
2021/05/13 06:40:35;;;;;;;6.40;1.45;;;19.70;87.20;;;;;;5032964;28;20049;-46
2021/05/13 06:43:19;;;;;;;1.88;1.23;;;19.90;86.90;;;;;;5030452;28;20549;-46
2021/05/13 06:45:47;;;;;;;4.82;1.42;;;20.20;86.50;;;;;;5016492;28;20049;-46
2021/05/13 06:48:16;;;;;;;5.07;1.95;;;20.30;85.60;;;;;;5030616;28;20129;-53
2021/05/13 06:50:44;;;;;;;4.40;1.60;;;20.40;84.80;;;;;;5015881;28;20041;-48
2021/05/13 06:53:12;;;;;;;10.55;1.80;;;20.50;84.10;;;;;;5032508;28;20077;-50
2021/05/13 06:55:40;;;;;;;2.47;1.48;;;20.50;83.80;;;;;;5033417;28;20394;-47
2021/05/13 06:58:08;;;;;;;7.80;2.38;;;20.70;83.80;;;;;;5034134;28;20053;-47
2021/05/13 07:00:37;;;;;;;5.22;2.20;;;20.80;83.80;;;;;;5008319;28;20137;-46
2021/05/13 07:03:13;;;;;;;3.47;1.50;;;21.00;83.30;;;;;;5016816;28;20099;-48
2021/05/13 07:05:42;;;;;;;3.65;1.60;;;21.20;82.80;;;;;;5032802;28;20518;-46
2021/05/13 07:08:10;;;;;;;4.43;2.25;;;21.00;82.90;;;;;;5032868;28;20506;-48
2021/05/13 07:10:39;;;;;;;3.33;1.52;;;21.00;82.40;;;;;;5021585;28;20060;-46
2021/05/13 07:13:07;;;;;;;3.72;1.45;;;21.10;82.50;;;;;;5017753;28;20053;-47
2021/05/13 07:15:36;;;;;;;2.85;1.25;;;21.10;82.10;;;;;;5032616;28;20053;-46
2021/05/13 07:18:04;;;;;;;4.47;2.53;;;21.30;82.60;;;;;;5033607;28;20104;-46
2021/05/13 07:20:33;;;;;;;4.85;1.77;;;21.60;82.50;;;;;;5016687;28;20056;-48
2021/05/13 07:23:01;;;;;;;4.45;1.65;;;22.00;82.20;;;;;;5033596;28;20046;-48
2021/05/13 07:25:28;;;;;;;3.95;2.08;;;22.10;81.10;;;;;;5033931;28;20053;-46
2021/05/13 07:27:56;;;;;;;4.20;1.65;;;22.20;80.80;;;;;;4999988;28;20045;-47
2021/05/13 07:30:25;;;;;;;5.97;2.17;;;22.10;81.20;;;;;;5032739;28;20073;-46
2021/05/13 07:32:54;;;;;;;8.93;2.97;;;22.30;82.00;;;;;;5016169;28;20060;-46
2021/05/13 07:35:22;;;;;;;5.20;1.70;;;22.30;81.90;;;;;;5032631;28;20084;-47
2021/05/13 07:37:52;;;;;;;4.35;1.40;;;22.20;82.40;;;;;;5032927;28;20145;-49
2021/05/13 07:40:23;;;;;;;4.07;1.95;;;22.20;82.00;;;;;;5029318;28;20128;-46
2021/05/13 07:42:51;;;;;;;7.53;1.92;;;22.00;82.50;;;;;;5043120;28;20073;-47
2021/05/13 07:45:19;;;;;;;7.93;3.00;;;21.90;83.10;;;;;;5030524;28;20115;-46
2021/05/13 07:47:48;;;;;;;3.58;1.67;;;22.10;83.40;;;;;;5014754;28;20436;-51
2021/05/13 07:50:20;;;;;;;10.40;2.25;;;22.10;82.60;;;;;;5031624;28;20084;-51
2021/05/13 07:52:49;;;;;;;4.07;1.58;;;22.00;82.30;;;;;;5029011;28;20060;-48
2021/05/13 07:55:17;;;;;;;4.90;2.25;;;22.20;82.50;;;;;;5028825;28;20399;-48
2021/05/13 07:57:46;;;;;;;9.85;2.53;;;22.30;81.90;;;;;;5028011;28;20042;-48
2021/05/13 08:00:15;;;;;;;5.25;1.85;;;22.40;80.40;;;;;;5027212;28;20054;-49
2021/05/13 08:02:44;;;;;;;5.10;1.40;;;22.80;78.90;;;;;;5012899;28;20054;-46
2021/05/13 08:05:13;;;;;;;3.58;1.20;;;23.20;77.60;;;;;;5010440;28;20451;-49
2021/05/13 08:07:41;;;;;;;2.75;1.30;;;23.40;76.90;;;;;;5014140;28;20053;-48
2021/05/13 08:10:10;;;;;;;2.63;1.10;;;23.40;76.10;;;;;;5028066;28;20045;-55
2021/05/13 08:12:39;;;;;;;2.85;1.20;;;23.20;75.40;;;;;;4997979;28;20120;-47
2021/05/13 08:15:10;;;;;;;2.15;1.05;;;22.90;74.10;;;;;;5010330;28;21029;-50
2021/05/13 08:17:40;;;;;;;1.90;1.30;;;23.00;73.90;;;;;;5019767;28;20136;-49
2021/05/13 08:20:11;;;;;;;4.35;0.95;;;23.00;72.70;;;;;;5026287;28;20471;-49
2021/05/13 08:22:40;;;;;;;3.28;1.20;;;22.90;72.00;;;;;;5028592;28;20385;-46
2021/05/13 08:25:09;;;;;;;4.75;1.30;;;23.10;70.30;;;;;;5029331;28;20046;-50
2021/05/13 08:27:38;;;;;;;5.03;1.38;;;23.10;69.30;;;;;;5030000;28;20126;-50
2021/05/13 08:30:07;;;;;;;4.45;0.82;;;23.10;69.20;;;;;;5029088;28;20056;-47
2021/05/13 08:32:36;;;;;;;3.88;1.73;;;23.20;69.50;;;;;;5027808;28;20046;-46
2021/05/13 08:35:04;;;;;;;2.65;1.10;;;23.30;69.20;;;;;;5027943;28;20164;-49
2021/05/13 08:37:33;;;;;;;6.25;1.45;;;23.30;69.20;;;;;;5031871;28;20379;-47
2021/05/13 08:40:01;;;;;;;2.90;1.15;;;23.30;73.10;;;;;;4996171;28;20048;-48
2021/05/13 08:42:29;;;;;;;2.33;1.73;;;23.40;74.00;;;;;;5013929;28;20056;-48
2021/05/13 08:44:57;;;;;;;4.30;1.48;;;23.60;74.10;;;;;;5027895;28;20046;-48
2021/05/13 08:47:26;;;;;;;2.83;1.30;;;23.80;73.70;;;;;;5014351;28;20065;-50
2021/05/13 08:49:54;;;;;;;4.57;1.27;;;23.90;73.40;;;;;;5012370;28;20046;-47
2021/05/13 08:52:25;;;;;;;6.45;1.83;;;23.50;74.90;;;;;;5013972;28;20038;-46
2021/05/13 08:54:54;;;;;;;4.55;1.55;;;23.00;76.60;;;;;;5028764;28;20128;-46
2021/05/13 08:57:23;;;;;;;2.67;1.30;;;22.60;77.60;;;;;;5014980;28;20507;-47
2021/05/13 08:59:51;;;;;;;7.20;1.70;;;22.60;77.70;;;;;;5030667;28;20042;-47
2021/05/13 09:02:20;;;;;;;6.53;1.30;;;22.50;76.50;;;;;;5014855;28;20050;-47
2021/05/13 09:04:52;;;;;;;5.03;1.45;;;22.60;76.20;;;;;;5031519;28;20549;-47
2021/05/13 09:07:25;;;;;;;6.00;1.88;;;22.50;76.40;;;;;;5032340;28;20053;-49
2021/05/13 09:10:01;;;;;;;4.97;1.25;;;22.40;75.20;;;;;;5009404;28;20052;-47
2021/05/13 09:12:34;;;;;;;2.78;1.25;;;22.70;75.00;;;;;;5031195;28;20065;-46
2021/05/13 09:15:18;;;;;;;3.97;1.23;;;22.80;74.70;;;;;;4998857;28;20053;-48
2021/05/13 09:17:50;;;;;;;9.48;2.45;;;23.30;75.00;;;;;;5034908;28;20045;-46
2021/05/13 09:20:30;;;;;;;3.42;1.70;;;23.80;73.80;;;;;;5036617;28;20045;-49
2021/05/13 09:23:21;;;;;;;4.25;1.63;;;24.10;72.90;;;;;;5034790;28;20042;-54
2021/05/13 09:26:09;;;;;;;3.38;1.40;;;24.10;72.20;;;;;;5028076;28;20065;-47
2021/05/13 09:28:38;;;;;;;2.95;1.48;;;24.10;71.10;;;;;;5035749;28;20045;-48
2021/05/13 09:31:07;;;;;;;4.00;1.27;;;23.90;72.10;;;;;;5033254;28;20080;-48
2021/05/13 09:33:42;;;;;;;3.05;1.48;;;23.90;70.40;;;;;;5035130;28;20049;-53
2021/05/13 09:36:23;;;;;;;5.00;1.40;;;23.80;71.10;;;;;;5035819;28;20061;-46
2021/05/13 09:38:51;;;;;;;3.92;1.30;;;23.90;71.30;;;;;;5018376;28;20069;-46
2021/05/13 09:41:30;;;;;;;3.55;1.33;;;23.80;71.20;;;;;;5018529;28;20095;-46
2021/05/13 09:43:58;;;;;;;4.13;1.15;;;23.50;70.90;;;;;;5017614;28;20053;-47
2021/05/13 09:46:36;;;;;;;4.97;1.27;;;23.30;71.80;;;;;;5018287;28;20041;-52
2021/05/13 09:49:05;;;;;;;3.70;1.35;;;23.20;72.30;;;;;;5034909;28;20049;-47
2021/05/13 09:51:39;;;;;;;4.05;1.42;;;23.20;72.60;;;;;;5018083;28;20107;-48
2021/05/13 09:54:11;;;;;;;4.85;1.20;;;23.10;73.40;;;;;;5033249;28;20052;-46
2021/05/13 09:56:47;;;;;;;4.55;1.77;;;22.90;72.60;;;;;;5015350;28;20057;-50
2021/05/13 09:59:27;;;;;;;2.80;1.50;;;22.90;73.60;;;;;;5032597;28;20053;-49
2021/05/13 10:02:02;;;;;;;3.05;1.88;;;22.90;75.10;;;;;;5033899;28;20049;-52
2021/05/13 10:04:31;;;;;;;6.27;1.57;;;22.70;75.10;;;;;;5032497;28;20049;-49
2021/05/13 10:06:59;;;;;;;6.15;2.40;;;22.60;75.70;;;;;;5033096;28;20060;-54
2021/05/13 10:09:27;;;;;;;2.65;1.30;;;22.50;76.20;;;;;;5033718;28;20057;-50
2021/05/13 10:11:57;;;;;;;4.93;1.60;;;22.30;75.80;;;;;;5033515;28;20049;-49
2021/05/13 10:14:27;;;;;;;6.35;2.15;;;22.20;76.50;;;;;;5014251;28;20055;-47
2021/05/13 10:17:00;;;;;;;2.70;1.15;;;22.20;76.50;;;;;;5016980;28;20052;-49
2021/05/13 10:19:32;;;;;;;6.25;1.88;;;22.30;75.60;;;;;;5034485;28;20444;-46
2021/05/13 10:22:03;;;;;;;6.68;1.70;;;22.30;75.50;;;;;;5032187;28;20052;-46
2021/05/13 10:24:31;;;;;;;2.97;1.40;;;22.40;75.80;;;;;;5032732;28;20144;-46
2021/05/13 10:27:17;;;;;;;6.55;1.13;;;22.60;75.10;;;;;;5028202;28;20054;-47
2021/05/13 10:29:47;;;;;;;3.83;1.70;;;23.00;73.30;;;;;;5016685;28;20100;-48
2021/05/13 10:34:53;;;;;;;4.78;2.38;;;23.70;73.40;;;;;;5033265;28;20499;-47
2021/05/13 10:37:39;;;;;;;8.30;3.47;;;23.90;72.00;;;;;;5016160;28;20053;-47
2021/05/13 10:42:37;;;;;;;3.88;1.88;;;24.30;70.40;;;;;;5031372;28;20056;-47
2021/05/13 10:45:23;;;;;;;1.80;0.98;;;24.60;68.60;;;;;;5028160;28;20518;-51
2021/05/13 10:48:14;;;;;;;6.55;1.30;;;24.60;68.80;;;;;;5030374;28;20088;-48
2021/05/13 10:50:52;;;;;;;6.72;1.70;;;24.70;69.00;;;;;;5031090;28;20514;-46
2021/05/13 10:53:35;;;;;;;7.57;1.92;;;24.90;68.90;;;;;;5029804;28;20488;-49
2021/05/13 10:56:28;;;;;;;6.25;2.00;;;24.30;68.60;;;;;;5032708;28;20061;-51
2021/05/13 10:59:08;;;;;;;4.50;1.80;;;23.80;68.90;;;;;;4995963;28;20052;-46
2021/05/13 11:01:45;;;;;;;8.50;1.70;;;23.60;69.60;;;;;;5016635;28;20061;-51
2021/05/13 11:04:24;;;;;;;4.13;1.30;;;23.60;69.70;;;;;;5031688;28;20041;-47
2021/05/13 11:06:57;;;;;;;2.22;1.20;;;23.50;69.80;;;;;;5034114;28;20140;-46
2021/05/13 11:09:42;;;;;;;4.80;1.70;;;23.20;70.00;;;;;;5030137;28;20053;-47
2021/05/13 11:12:13;;;;;;;6.47;1.23;;;22.90;70.90;;;;;;5015731;28;20049;-49
2021/05/13 11:17:44;;;;;;;4.45;1.50;;;22.60;70.50;;;;;;4999802;28;20125;-53
2021/05/13 11:20:29;;;;;;;4.18;1.58;;;22.80;71.00;;;;;;5031051;28;20060;-49
2021/05/13 11:23:06;;;;;;;3.90;1.45;;;22.90;70.60;;;;;;5033525;28;20503;-51
2021/05/13 11:25:34;;;;;;;7.63;2.35;;;23.00;70.40;;;;;;5016287;28;20096;-48
2021/05/13 11:28:19;;;;;;;7.90;1.50;;;23.10;69.70;;;;;;5032144;28;20107;-50
2021/05/13 11:30:48;;;;;;;3.67;1.55;;;23.20;68.80;;;;;;5008894;28;20049;-54
2021/05/13 11:33:16;;;;;;;4.93;1.20;;;23.30;68.60;;;;;;5031757;28;20476;-50
2021/05/13 11:35:45;;;;;;;3.95;2.08;;;23.20;68.30;;;;;;5031024;28;20541;-53
2021/05/13 11:38:19;;;;;;;2.70;1.50;;;23.40;68.90;;;;;;5014552;28;20434;-50
2021/05/13 11:40:49;;;;;;;3.28;1.25;;;23.40;69.00;;;;;;5031504;28;20057;-51
2021/05/13 11:43:26;;;;;;;1.88;1.20;;;23.50;68.70;;;;;;5028369;28;20045;-49
2021/05/13 11:45:57;;;;;;;3.42;1.17;;;23.60;68.20;;;;;;5032090;28;20049;-52
2021/05/13 11:48:39;;;;;;;3.70;1.83;;;23.50;67.30;;;;;;5032216;28;20042;-50
2021/05/13 11:51:16;;;;;;;2.70;1.38;;;23.70;68.00;;;;;;5033003;28;20053;-50
2021/05/13 11:53:45;;;;;;;5.90;2.10;;;23.90;67.50;;;;;;5033085;28;20399;-48
2021/05/13 11:56:16;;;;;;;9.38;2.17;;;24.00;67.30;;;;;;5031583;28;20050;-49
2021/05/13 11:58:54;;;;;;;7.20;2.15;;;23.70;67.40;;;;;;5031470;28;20052;-51
2021/05/13 12:01:30;;;;;;;4.10;1.95;;;23.60;68.90;;;;;;5032287;28;20491;-54
2021/05/13 12:04:10;;;;;;;5.47;1.77;;;23.40;68.40;;;;;;5014317;28;20169;-50
2021/05/13 12:06:45;;;;;;;4.18;1.13;;;23.20;69.20;;;;;;5031853;28;20064;-53
2021/05/13 12:09:15;;;;;;;6.05;1.55;;;23.20;69.60;;;;;;5032455;28;20136;-53
2021/05/13 12:11:44;;;;;;;6.30;2.90;;;23.40;69.50;;;;;;5025137;28;20104;-50
2021/05/13 12:14:22;;;;;;;3.80;1.73;;;23.50;68.60;;;;;;5031296;28;20071;-53
2021/05/13 12:17:03;;;;;;;2.72;1.73;;;23.60;68.60;;;;;;5003821;28;20068;-55
2021/05/13 12:19:38;;;;;;;5.18;1.90;;;23.50;68.50;;;;;;5030504;28;20054;-48
2021/05/13 12:22:09;;;;;;;3.50;1.67;;;23.50;68.30;;;;;;5029675;28;20045;-51
2021/05/13 12:24:42;;;;;;;3.70;1.70;;;23.50;68.30;;;;;;5032250;28;20404;-50
2021/05/13 12:27:15;;;;;;;10.10;2.75;;;23.50;68.10;;;;;;5024396;28;20065;-55
2021/05/13 12:29:50;;;;;;;5.40;2.35;;;23.40;67.60;;;;;;5030863;28;20073;-50
2021/05/13 12:32:29;;;;;;;6.28;1.80;;;23.30;68.00;;;;;;5029153;28;20052;-51
2021/05/13 12:34:58;;;;;;;3.55;1.40;;;23.40;68.70;;;;;;5008954;28;20042;-51
2021/05/13 12:37:26;;;;;;;4.00;1.10;;;23.30;69.10;;;;;;5029397;28;20064;-50
2021/05/13 12:39:54;;;;;;;5.90;1.77;;;23.50;68.70;;;;;;5014765;28;20053;-50
2021/05/13 12:42:33;;;;;;;3.05;1.45;;;23.50;68.50;;;;;;5031097;28;20069;-51
2021/05/13 12:45:21;;;;;;;7.75;1.67;;;23.50;68.00;;;;;;5031594;28;20056;-50
2021/05/13 12:48:01;;;;;;;3.90;1.38;;;23.40;68.50;;;;;;5014229;28;20503;-52
2021/05/13 12:50:33;;;;;;;2.30;1.20;;;23.20;68.60;;;;;;5032606;28;20053;-49
2021/05/13 12:53:14;;;;;;;3.22;1.50;;;23.10;68.30;;;;;;5034966;28;20065;-50
2021/05/13 12:55:45;;;;;;;6.60;2.17;;;22.90;69.00;;;;;;5015396;28;20462;-50
2021/05/13 12:58:35;;;;;;;5.40;1.60;;;22.90;68.80;;;;;;5027460;28;20060;-49
2021/05/13 13:01:04;;;;;;;5.47;2.20;;;22.80;68.20;;;;;;5018620;28;20399;-55
2021/05/13 13:03:41;;;;;;;6.40;2.40;;;22.90;69.00;;;;;;5017636;28;20072;-52
2021/05/13 13:06:10;;;;;;;5.63;2.05;;;22.90;68.10;;;;;;5032515;28;20053;-53
2021/05/13 13:08:47;;;;;;;11.50;2.67;;;22.90;68.20;;;;;;5035467;28;20056;-51
2021/05/13 13:11:34;;;;;;;2.38;1.30;;;23.10;68.20;;;;;;5034665;28;20059;-51
2021/05/13 13:14:06;;;;;;;11.70;2.60;;;23.20;67.40;;;;;;5034521;28;20592;-48
2021/05/13 13:16:39;;;;;;;15.63;3.70;;;23.30;66.40;;;;;;5034913;28;20049;-52
2021/05/13 13:19:11;;;;;;;38.03;5.63;;;23.30;66.90;;;;;;5032799;28;20491;-51
2021/05/13 13:21:56;;;;;;;3.75;1.80;;;23.30;67.80;;;;;;5034062;28;20124;-50
2021/05/13 13:24:24;;;;;;;15.38;2.80;;;23.40;67.80;;;;;;5034565;28;20107;-53
2021/05/13 13:27:00;;;;;;;8.85;1.65;;;23.20;67.10;;;;;;5016755;28;20131;-53